sensor_id;sensor_type;location;lat;lon;timestamp;P1;durP1;ratioP1;P2;durP2;ratioP2
58372;SDS011;44177;43.356;27.672;2022-10-10T00:00:33;3.63;;;2.97;;
58372;SDS011;44177;43.356;27.672;2022-10-10T00:02:59;3.10;;;2.75;;
58372;SDS011;44177;43.356;27.672;2022-10-10T00:05:24;3.13;;;2.83;;
58372;SDS011;44177;43.356;27.672;2022-10-10T00:07:50;3.88;;;2.92;;
58372;SDS011;44177;43.356;27.672;2022-10-10T00:10:15;3.38;;;2.90;;
58372;SDS011;44177;43.356;27.672;2022-10-10T00:12:41;3.50;;;3.00;;
58372;SDS011;44177;43.356;27.672;2022-10-10T00:15:07;4.05;;;3.30;;
58372;SDS011;44177;43.356;27.672;2022-10-10T00:17:33;3.22;;;2.85;;
58372;SDS011;44177;43.356;27.672;2022-10-10T00:19:58;3.55;;;2.88;;
58372;SDS011;44177;43.356;27.672;2022-10-10T00:22:24;4.22;;;3.38;;
58372;SDS011;44177;43.356;27.672;2022-10-10T00:24:49;4.15;;;3.35;;
58372;SDS011;44177;43.356;27.672;2022-10-10T00:27:14;3.50;;;3.20;;
58372;SDS011;44177;43.356;27.672;2022-10-10T00:29:40;4.07;;;2.97;;
58372;SDS011;44177;43.356;27.672;2022-10-10T00:32:05;3.20;;;2.90;;
58372;SDS011;44177;43.356;27.672;2022-10-10T00:34:31;4.40;;;3.22;;
58372;SDS011;44177;43.356;27.672;2022-10-10T00:36:57;3.67;;;3.17;;
58372;SDS011;44177;43.356;27.672;2022-10-10T00:39:23;3.50;;;3.20;;
58372;SDS011;44177;43.356;27.672;2022-10-10T00:41:48;3.72;;;3.42;;
58372;SDS011;44177;43.356;27.672;2022-10-10T00:44:14;3.17;;;2.83;;
58372;SDS011;44177;43.356;27.672;2022-10-10T00:46:39;5.25;;;3.22;;
58372;SDS011;44177;43.356;27.672;2022-10-10T00:49:08;4.50;;;3.45;;
58372;SDS011;44177;43.356;27.672;2022-10-10T00:51:38;3.88;;;3.40;;
58372;SDS011;44177;43.356;27.672;2022-10-10T00:54:06;3.55;;;3.17;;
58372;SDS011;44177;43.356;27.672;2022-10-10T00:56:37;3.67;;;3.38;;
58372;SDS011;44177;43.356;27.672;2022-10-10T00:59:05;3.70;;;3.30;;
58372;SDS011;44177;43.356;27.672;2022-10-10T01:01:35;3.42;;;3.10;;
58372;SDS011;44177;43.356;27.672;2022-10-10T01:04:01;4.85;;;3.55;;
58372;SDS011;44177;43.356;27.672;2022-10-10T01:06:27;3.95;;;3.38;;
58372;SDS011;44177;43.356;27.672;2022-10-10T01:08:53;4.25;;;3.35;;
58372;SDS011;44177;43.356;27.672;2022-10-10T01:16:48;3.50;;;3.20;;
58372;SDS011;44177;43.356;27.672;2022-10-10T01:27:24;3.80;;;3.42;;
58372;SDS011;44177;43.356;27.672;2022-10-10T01:29:57;3.42;;;3.13;;
58372;SDS011;44177;43.356;27.672;2022-10-10T01:32:32;4.25;;;3.45;;
58372;SDS011;44177;43.356;27.672;2022-10-10T01:40:38;4.55;;;3.53;;
58372;SDS011;44177;43.356;27.672;2022-10-10T01:43:06;3.88;;;3.47;;
58372;SDS011;44177;43.356;27.672;2022-10-10T01:45:32;3.63;;;3.28;;
58372;SDS011;44177;43.356;27.672;2022-10-10T01:48:00;3.67;;;3.38;;
58372;SDS011;44177;43.356;27.672;2022-10-10T01:50:27;4.13;;;3.53;;
58372;SDS011;44177;43.356;27.672;2022-10-10T02:00:53;3.55;;;3.25;;
58372;SDS011;44177;43.356;27.672;2022-10-10T02:03:27;4.60;;;3.60;;
58372;SDS011;44177;43.356;27.672;2022-10-10T02:06:01;4.10;;;3.65;;
58372;SDS011;44177;43.356;27.672;2022-10-10T02:08:35;3.60;;;3.25;;
58372;SDS011;44177;43.356;27.672;2022-10-10T02:11:06;4.03;;;3.63;;
58372;SDS011;44177;43.356;27.672;2022-10-10T02:13:38;3.60;;;3.17;;
58372;SDS011;44177;43.356;27.672;2022-10-10T02:16:12;4.32;;;3.55;;
58372;SDS011;44177;43.356;27.672;2022-10-10T02:18:45;4.32;;;3.58;;
58372;SDS011;44177;43.356;27.672;2022-10-10T02:21:13;3.75;;;3.45;;
58372;SDS011;44177;43.356;27.672;2022-10-10T02:23:41;3.67;;;3.30;;
58372;SDS011;44177;43.356;27.672;2022-10-10T02:26:10;3.85;;;3.30;;
58372;SDS011;44177;43.356;27.672;2022-10-10T02:28:40;4.72;;;3.65;;
58372;SDS011;44177;43.356;27.672;2022-10-10T02:31:16;4.00;;;3.60;;
58372;SDS011;44177;43.356;27.672;2022-10-10T02:33:50;4.57;;;3.72;;
58372;SDS011;44177;43.356;27.672;2022-10-10T02:36:23;4.30;;;3.53;;
58372;SDS011;44177;43.356;27.672;2022-10-10T02:38:51;4.03;;;3.63;;
58372;SDS011;44177;43.356;27.672;2022-10-10T02:41:19;3.92;;;3.53;;
58372;SDS011;44177;43.356;27.672;2022-10-10T02:43:46;4.53;;;3.65;;
58372;SDS011;44177;43.356;27.672;2022-10-10T02:46:14;3.78;;;3.47;;
58372;SDS011;44177;43.356;27.672;2022-10-10T02:48:40;4.10;;;3.70;;
58372;SDS011;44177;43.356;27.672;2022-10-10T02:51:06;3.92;;;3.53;;
58372;SDS011;44177;43.356;27.672;2022-10-10T02:53:33;4.32;;;3.25;;
58372;SDS011;44177;43.356;27.672;2022-10-10T02:56:01;3.90;;;3.30;;
58372;SDS011;44177;43.356;27.672;2022-10-10T02:58:28;3.67;;;3.13;;
58372;SDS011;44177;43.356;27.672;2022-10-10T03:00:54;3.90;;;3.50;;
58372;SDS011;44177;43.356;27.672;2022-10-10T03:03:19;3.95;;;3.55;;
58372;SDS011;44177;43.356;27.672;2022-10-10T03:05:45;4.07;;;3.67;;
58372;SDS011;44177;43.356;27.672;2022-10-10T03:08:11;3.80;;;3.40;;
58372;SDS011;44177;43.356;27.672;2022-10-10T03:10:36;4.00;;;3.50;;
58372;SDS011;44177;43.356;27.672;2022-10-10T03:13:02;3.70;;;3.30;;
58372;SDS011;44177;43.356;27.672;2022-10-10T03:15:27;4.50;;;3.63;;
58372;SDS011;44177;43.356;27.672;2022-10-10T03:17:52;4.15;;;3.55;;
58372;SDS011;44177;43.356;27.672;2022-10-10T03:20:18;3.78;;;3.47;;
58372;SDS011;44177;43.356;27.672;2022-10-10T03:22:43;4.18;;;3.50;;
58372;SDS011;44177;43.356;27.672;2022-10-10T03:25:09;4.00;;;3.53;;
58372;SDS011;44177;43.356;27.672;2022-10-10T03:27:34;4.10;;;3.35;;
58372;SDS011;44177;43.356;27.672;2022-10-10T03:30:00;3.78;;;3.45;;
58372;SDS011;44177;43.356;27.672;2022-10-10T03:32:26;3.72;;;3.42;;
58372;SDS011;44177;43.356;27.672;2022-10-10T03:34:52;4.03;;;3.63;;
58372;SDS011;44177;43.356;27.672;2022-10-10T03:37:17;4.88;;;3.85;;
58372;SDS011;44177;43.356;27.672;2022-10-10T03:39:43;4.57;;;3.70;;
58372;SDS011;44177;43.356;27.672;2022-10-10T03:42:08;3.83;;;3.42;;
58372;SDS011;44177;43.356;27.672;2022-10-10T03:44:34;4.47;;;3.38;;
58372;SDS011;44177;43.356;27.672;2022-10-10T03:46:59;3.55;;;3.17;;
58372;SDS011;44177;43.356;27.672;2022-10-10T03:49:25;4.40;;;3.40;;
58372;SDS011;44177;43.356;27.672;2022-10-10T03:51:50;4.13;;;3.60;;
58372;SDS011;44177;43.356;27.672;2022-10-10T03:54:17;3.95;;;3.50;;
58372;SDS011;44177;43.356;27.672;2022-10-10T03:56:43;4.25;;;3.58;;
58372;SDS011;44177;43.356;27.672;2022-10-10T03:59:08;4.30;;;3.63;;
58372;SDS011;44177;43.356;27.672;2022-10-10T04:01:34;3.90;;;3.50;;
58372;SDS011;44177;43.356;27.672;2022-10-10T04:03:59;5.28;;;3.28;;
58372;SDS011;44177;43.356;27.672;2022-10-10T04:06:25;4.05;;;3.60;;
58372;SDS011;44177;43.356;27.672;2022-10-10T04:08:51;3.55;;;3.25;;
58372;SDS011;44177;43.356;27.672;2022-10-10T04:11:17;4.75;;;3.67;;
58372;SDS011;44177;43.356;27.672;2022-10-10T04:13:42;4.57;;;3.55;;
58372;SDS011;44177;43.356;27.672;2022-10-10T04:16:08;4.25;;;3.75;;
58372;SDS011;44177;43.356;27.672;2022-10-10T04:18:33;4.25;;;3.65;;
58372;SDS011;44177;43.356;27.672;2022-10-10T04:21:02;4.10;;;3.60;;
58372;SDS011;44177;43.356;27.672;2022-10-10T04:23:29;3.35;;;3.05;;
58372;SDS011;44177;43.356;27.672;2022-10-10T04:25:55;4.72;;;3.47;;
58372;SDS011;44177;43.356;27.672;2022-10-10T04:28:20;4.07;;;3.35;;
58372;SDS011;44177;43.356;27.672;2022-10-10T04:30:45;4.65;;;3.55;;
58372;SDS011;44177;43.356;27.672;2022-10-10T04:33:11;4.22;;;3.58;;
58372;SDS011;44177;43.356;27.672;2022-10-10T04:35:37;4.25;;;3.60;;
58372;SDS011;44177;43.356;27.672;2022-10-10T04:38:03;4.00;;;3.60;;
58372;SDS011;44177;43.356;27.672;2022-10-10T04:40:29;5.35;;;3.40;;
58372;SDS011;44177;43.356;27.672;2022-10-10T04:42:55;4.05;;;3.63;;
58372;SDS011;44177;43.356;27.672;2022-10-10T04:45:21;3.60;;;3.30;;
58372;SDS011;44177;43.356;27.672;2022-10-10T04:47:50;4.07;;;3.67;;
58372;SDS011;44177;43.356;27.672;2022-10-10T04:50:16;4.25;;;3.42;;
58372;SDS011;44177;43.356;27.672;2022-10-10T04:52:42;4.57;;;3.60;;
58372;SDS011;44177;43.356;27.672;2022-10-10T04:55:07;3.72;;;3.40;;
58372;SDS011;44177;43.356;27.672;2022-10-10T04:57:33;4.10;;;3.50;;
58372;SDS011;44177;43.356;27.672;2022-10-10T04:59:58;3.85;;;3.45;;
58372;SDS011;44177;43.356;27.672;2022-10-10T05:02:24;4.05;;;3.38;;
58372;SDS011;44177;43.356;27.672;2022-10-10T05:04:49;4.03;;;3.60;;
58372;SDS011;44177;43.356;27.672;2022-10-10T05:07:15;3.88;;;3.55;;
58372;SDS011;44177;43.356;27.672;2022-10-10T05:09:40;3.55;;;3.25;;
58372;SDS011;44177;43.356;27.672;2022-10-10T05:12:05;4.00;;;3.60;;
58372;SDS011;44177;43.356;27.672;2022-10-10T05:14:31;4.10;;;3.70;;
58372;SDS011;44177;43.356;27.672;2022-10-10T05:16:56;4.00;;;3.60;;
58372;SDS011;44177;43.356;27.672;2022-10-10T05:19:22;3.90;;;3.50;;
58372;SDS011;44177;43.356;27.672;2022-10-10T05:21:47;3.35;;;3.05;;
58372;SDS011;44177;43.356;27.672;2022-10-10T05:24:13;3.80;;;3.50;;
58372;SDS011;44177;43.356;27.672;2022-10-10T05:26:38;3.70;;;3.40;;
58372;SDS011;44177;43.356;27.672;2022-10-10T05:29:03;3.60;;;3.30;;
58372;SDS011;44177;43.356;27.672;2022-10-10T05:31:30;3.75;;;3.22;;
58372;SDS011;44177;43.356;27.672;2022-10-10T05:33:55;4.82;;;3.42;;
58372;SDS011;44177;43.356;27.672;2022-10-10T05:36:21;3.65;;;3.28;;
58372;SDS011;44177;43.356;27.672;2022-10-10T05:38:46;3.78;;;3.38;;
58372;SDS011;44177;43.356;27.672;2022-10-10T05:41:12;3.38;;;3.05;;
58372;SDS011;44177;43.356;27.672;2022-10-10T05:43:37;4.03;;;3.60;;
58372;SDS011;44177;43.356;27.672;2022-10-10T05:46:03;3.92;;;3.22;;
58372;SDS011;44177;43.356;27.672;2022-10-10T05:48:29;3.55;;;3.25;;
58372;SDS011;44177;43.356;27.672;2022-10-10T05:50:55;3.88;;;3.50;;
58372;SDS011;44177;43.356;27.672;2022-10-10T05:53:22;3.60;;;3.30;;
58372;SDS011;44177;43.356;27.672;2022-10-10T05:55:49;3.33;;;3.03;;
58372;SDS011;44177;43.356;27.672;2022-10-10T05:58:14;4.25;;;3.00;;
58372;SDS011;44177;43.356;27.672;2022-10-10T06:00:40;3.50;;;3.20;;
58372;SDS011;44177;43.356;27.672;2022-10-10T06:03:08;3.45;;;3.15;;
58372;SDS011;44177;43.356;27.672;2022-10-10T06:05:38;3.25;;;2.97;;
58372;SDS011;44177;43.356;27.672;2022-10-10T06:08:07;3.53;;;3.22;;
58372;SDS011;44177;43.356;27.672;2022-10-10T06:10:33;3.50;;;3.20;;
58372;SDS011;44177;43.356;27.672;2022-10-10T06:13:00;3.47;;;3.17;;
58372;SDS011;44177;43.356;27.672;2022-10-10T06:15:25;4.40;;;3.17;;
58372;SDS011;44177;43.356;27.672;2022-10-10T06:17:51;3.78;;;3.17;;
58372;SDS011;44177;43.356;27.672;2022-10-10T06:20:16;4.45;;;3.40;;
58372;SDS011;44177;43.356;27.672;2022-10-10T06:22:41;3.55;;;3.25;;
58372;SDS011;44177;43.356;27.672;2022-10-10T06:25:07;3.55;;;3.20;;
58372;SDS011;44177;43.356;27.672;2022-10-10T06:27:33;3.78;;;3.40;;
58372;SDS011;44177;43.356;27.672;2022-10-10T06:29:58;3.70;;;3.17;;
58372;SDS011;44177;43.356;27.672;2022-10-10T06:32:24;3.75;;;3.40;;
58372;SDS011;44177;43.356;27.672;2022-10-10T06:34:49;3.47;;;2.95;;
58372;SDS011;44177;43.356;27.672;2022-10-10T06:37:14;3.75;;;3.03;;
58372;SDS011;44177;43.356;27.672;2022-10-10T06:39:40;3.58;;;3.28;;
58372;SDS011;44177;43.356;27.672;2022-10-10T06:42:05;3.65;;;3.13;;
58372;SDS011;44177;43.356;27.672;2022-10-10T06:44:31;3.10;;;2.80;;
58372;SDS011;44177;43.356;27.672;2022-10-10T06:46:56;3.22;;;2.92;;
58372;SDS011;44177;43.356;27.672;2022-10-10T06:49:22;3.35;;;3.03;;
58372;SDS011;44177;43.356;27.672;2022-10-10T06:51:47;3.40;;;3.10;;
58372;SDS011;44177;43.356;27.672;2022-10-10T06:54:12;2.90;;;2.70;;
58372;SDS011;44177;43.356;27.672;2022-10-10T06:56:38;3.30;;;3.00;;
58372;SDS011;44177;43.356;27.672;2022-10-10T06:59:03;3.47;;;3.10;;
58372;SDS011;44177;43.356;27.672;2022-10-10T07:01:29;3.58;;;3.10;;
58372;SDS011;44177;43.356;27.672;2022-10-10T07:03:54;4.05;;;3.03;;
58372;SDS011;44177;43.356;27.672;2022-10-10T07:06:20;3.13;;;2.80;;
58372;SDS011;44177;43.356;27.672;2022-10-10T07:08:46;3.53;;;3.00;;
58372;SDS011;44177;43.356;27.672;2022-10-10T07:11:11;4.65;;;3.13;;
58372;SDS011;44177;43.356;27.672;2022-10-10T07:13:37;2.83;;;2.55;;
58372;SDS011;44177;43.356;27.672;2022-10-10T07:16:03;3.15;;;2.75;;
58372;SDS011;44177;43.356;27.672;2022-10-10T07:18:29;2.95;;;2.65;;
58372;SDS011;44177;43.356;27.672;2022-10-10T07:20:55;2.95;;;2.58;;
58372;SDS011;44177;43.356;27.672;2022-10-10T07:23:25;3.10;;;2.90;;
58372;SDS011;44177;43.356;27.672;2022-10-10T07:25:51;3.10;;;2.65;;
58372;SDS011;44177;43.356;27.672;2022-10-10T07:28:22;2.80;;;2.60;;
58372;SDS011;44177;43.356;27.672;2022-10-10T07:30:47;2.90;;;2.67;;
58372;SDS011;44177;43.356;27.672;2022-10-10T07:33:13;3.80;;;2.70;;
58372;SDS011;44177;43.356;27.672;2022-10-10T07:35:39;2.55;;;2.35;;
58372;SDS011;44177;43.356;27.672;2022-10-10T07:38:05;3.25;;;2.50;;
58372;SDS011;44177;43.356;27.672;2022-10-10T07:40:31;2.85;;;2.33;;
58372;SDS011;44177;43.356;27.672;2022-10-10T07:42:57;2.75;;;2.55;;
58372;SDS011;44177;43.356;27.672;2022-10-10T07:45:23;2.65;;;2.45;;
58372;SDS011;44177;43.356;27.672;2022-10-10T07:47:50;2.90;;;2.40;;
58372;SDS011;44177;43.356;27.672;2022-10-10T07:50:16;2.80;;;2.60;;
58372;SDS011;44177;43.356;27.672;2022-10-10T07:52:42;2.95;;;2.65;;
58372;SDS011;44177;43.356;27.672;2022-10-10T07:55:07;2.50;;;2.30;;
58372;SDS011;44177;43.356;27.672;2022-10-10T07:57:34;3.15;;;2.60;;
58372;SDS011;44177;43.356;27.672;2022-10-10T08:00:08;2.60;;;2.40;;
58372;SDS011;44177;43.356;27.672;2022-10-10T08:02:35;2.75;;;2.42;;
58372;SDS011;44177;43.356;27.672;2022-10-10T08:05:00;2.70;;;2.35;;
58372;SDS011;44177;43.356;27.672;2022-10-10T08:07:26;2.70;;;2.50;;
58372;SDS011;44177;43.356;27.672;2022-10-10T08:09:51;2.50;;;2.30;;
58372;SDS011;44177;43.356;27.672;2022-10-10T08:12:17;2.65;;;2.45;;
58372;SDS011;44177;43.356;27.672;2022-10-10T08:14:42;2.60;;;2.38;;
58372;SDS011;44177;43.356;27.672;2022-10-10T08:17:08;2.60;;;2.40;;
58372;SDS011;44177;43.356;27.672;2022-10-10T08:19:33;2.97;;;2.58;;
58372;SDS011;44177;43.356;27.672;2022-10-10T08:21:59;3.63;;;2.78;;
58372;SDS011;44177;43.356;27.672;2022-10-10T08:24:24;2.55;;;2.35;;
58372;SDS011;44177;43.356;27.672;2022-10-10T08:26:50;2.70;;;2.50;;
58372;SDS011;44177;43.356;27.672;2022-10-10T08:29:15;2.88;;;2.50;;
58372;SDS011;44177;43.356;27.672;2022-10-10T08:31:41;3.15;;;2.40;;
58372;SDS011;44177;43.356;27.672;2022-10-10T08:34:07;2.97;;;2.40;;
58372;SDS011;44177;43.356;27.672;2022-10-10T08:36:33;2.88;;;2.50;;
58372;SDS011;44177;43.356;27.672;2022-10-10T08:38:59;2.45;;;2.25;;
58372;SDS011;44177;43.356;27.672;2022-10-10T08:44:11;2.50;;;2.30;;
58372;SDS011;44177;43.356;27.672;2022-10-10T08:46:53;2.53;;;2.28;;
58372;SDS011;44177;43.356;27.672;2022-10-10T08:52:07;2.60;;;2.40;;
58372;SDS011;44177;43.356;27.672;2022-10-10T08:54:37;2.47;;;2.28;;
58372;SDS011;44177;43.356;27.672;2022-10-10T08:57:05;3.08;;;2.50;;
58372;SDS011;44177;43.356;27.672;2022-10-10T08:59:46;2.30;;;2.10;;
58372;SDS011;44177;43.356;27.672;2022-10-10T09:02:55;2.50;;;2.30;;
58372;SDS011;44177;43.356;27.672;2022-10-10T09:15:55;2.53;;;2.33;;
58372;SDS011;44177;43.356;27.672;2022-10-10T09:21:31;2.63;;;2.42;;
58372;SDS011;44177;43.356;27.672;2022-10-10T09:24:04;2.90;;;2.67;;
58372;SDS011;44177;43.356;27.672;2022-10-10T09:26:38;2.65;;;2.13;;
58372;SDS011;44177;43.356;27.672;2022-10-10T09:31:59;3.00;;;2.40;;
58372;SDS011;44177;43.356;27.672;2022-10-10T09:34:44;2.47;;;2.28;;
58372;SDS011;44177;43.356;27.672;2022-10-10T09:37:22;3.20;;;2.33;;
58372;SDS011;44177;43.356;27.672;2022-10-10T09:39:58;2.63;;;2.42;;
58372;SDS011;44177;43.356;27.672;2022-10-10T09:42:35;2.35;;;2.15;;
58372;SDS011;44177;43.356;27.672;2022-10-10T09:45:04;3.35;;;2.38;;
58372;SDS011;44177;43.356;27.672;2022-10-10T09:47:41;2.45;;;2.00;;
58372;SDS011;44177;43.356;27.672;2022-10-10T09:50:10;2.42;;;2.22;;
58372;SDS011;44177;43.356;27.672;2022-10-10T09:52:37;2.88;;;2.30;;
58372;SDS011;44177;43.356;27.672;2022-10-10T09:55:22;2.67;;;2.30;;
58372;SDS011;44177;43.356;27.672;2022-10-10T09:57:51;2.53;;;2.17;;
58372;SDS011;44177;43.356;27.672;2022-10-10T10:02:48;2.55;;;2.35;;
58372;SDS011;44177;43.356;27.672;2022-10-10T10:05:27;2.45;;;2.25;;
58372;SDS011;44177;43.356;27.672;2022-10-10T10:07:53;2.20;;;2.00;;
58372;SDS011;44177;43.356;27.672;2022-10-10T10:10:20;2.45;;;2.10;;
58372;SDS011;44177;43.356;27.672;2022-10-10T10:12:48;2.45;;;2.25;;
58372;SDS011;44177;43.356;27.672;2022-10-10T10:17:43;2.45;;;2.00;;
58372;SDS011;44177;43.356;27.672;2022-10-10T10:22:53;2.10;;;2.00;;
58372;SDS011;44177;43.356;27.672;2022-10-10T10:30:35;2.30;;;2.10;;
58372;SDS011;44177;43.356;27.672;2022-10-10T10:33:07;2.10;;;1.90;;
58372;SDS011;44177;43.356;27.672;2022-10-10T10:39:06;2.50;;;2.10;;
58372;SDS011;44177;43.356;27.672;2022-10-10T10:44:29;2.20;;;2.00;;
58372;SDS011;44177;43.356;27.672;2022-10-10T10:47:25;2.30;;;2.10;;
58372;SDS011;44177;43.356;27.672;2022-10-10T10:53:02;2.15;;;2.03;;
58372;SDS011;44177;43.356;27.672;2022-10-10T10:56:04;2.17;;;1.90;;
58372;SDS011;44177;43.356;27.672;2022-10-10T10:58:47;3.08;;;2.00;;
58372;SDS011;44177;43.356;27.672;2022-10-10T11:04:25;2.15;;;1.70;;
58372;SDS011;44177;43.356;27.672;2022-10-10T11:09:52;1.77;;;1.67;;
58372;SDS011;44177;43.356;27.672;2022-10-10T11:15:22;1.67;;;1.58;;
58372;SDS011;44177;43.356;27.672;2022-10-10T11:18:22;1.90;;;1.67;;
58372;SDS011;44177;43.356;27.672;2022-10-10T11:21:00;2.15;;;1.85;;
58372;SDS011;44177;43.356;27.672;2022-10-10T11:23:33;2.55;;;1.83;;
58372;SDS011;44177;43.356;27.672;2022-10-10T11:26:05;2.05;;;1.85;;
58372;SDS011;44177;43.356;27.672;2022-10-10T11:28:37;2.03;;;1.83;;
58372;SDS011;44177;43.356;27.672;2022-10-10T11:31:09;1.98;;;1.88;;
58372;SDS011;44177;43.356;27.672;2022-10-10T11:33:43;2.00;;;1.60;;
58372;SDS011;44177;43.356;27.672;2022-10-10T11:36:19;1.60;;;1.50;;
58372;SDS011;44177;43.356;27.672;2022-10-10T11:38:50;1.90;;;1.80;;
58372;SDS011;44177;43.356;27.672;2022-10-10T11:44:04;1.73;;;1.63;;
58372;SDS011;44177;43.356;27.672;2022-10-10T11:46:42;1.70;;;1.60;;
58372;SDS011;44177;43.356;27.672;2022-10-10T11:49:18;2.10;;;1.90;;
58372;SDS011;44177;43.356;27.672;2022-10-10T11:57:35;2.05;;;1.83;;
58372;SDS011;44177;43.356;27.672;2022-10-10T12:00:05;2.47;;;2.00;;
58372;SDS011;44177;43.356;27.672;2022-10-10T12:02:35;1.75;;;1.55;;
58372;SDS011;44177;43.356;27.672;2022-10-10T12:05:05;1.85;;;1.73;;
58372;SDS011;44177;43.356;27.672;2022-10-10T12:10:26;2.28;;;1.80;;
58372;SDS011;44177;43.356;27.672;2022-10-10T12:16:35;2.47;;;2.17;;
58372;SDS011;44177;43.356;27.672;2022-10-10T12:18:58;1.60;;;1.50;;
58372;SDS011;44177;43.356;27.672;2022-10-10T12:23:59;1.63;;;1.52;;
58372;SDS011;44177;43.356;27.672;2022-10-10T12:37:29;1.95;;;1.80;;
58372;SDS011;44177;43.356;27.672;2022-10-10T12:44:58;1.83;;;1.60;;
58372;SDS011;44177;43.356;27.672;2022-10-10T12:47:28;2.00;;;1.80;;
58372;SDS011;44177;43.356;27.672;2022-10-10T12:49:57;1.85;;;1.70;;
58372;SDS011;44177;43.356;27.672;2022-10-10T12:55:21;1.80;;;1.70;;
58372;SDS011;44177;43.356;27.672;2022-10-10T12:57:51;1.92;;;1.50;;
58372;SDS011;44177;43.356;27.672;2022-10-10T13:00:23;2.13;;;1.77;;
58372;SDS011;44177;43.356;27.672;2022-10-10T13:02:53;1.67;;;1.55;;
58372;SDS011;44177;43.356;27.672;2022-10-10T13:05:26;1.52;;;1.42;;
58372;SDS011;44177;43.356;27.672;2022-10-10T13:07:58;2.35;;;1.52;;
58372;SDS011;44177;43.356;27.672;2022-10-10T13:10:27;3.38;;;1.73;;
58372;SDS011;44177;43.356;27.672;2022-10-10T13:13:27;1.70;;;1.55;;
58372;SDS011;44177;43.356;27.672;2022-10-10T13:15:56;2.38;;;1.73;;
58372;SDS011;44177;43.356;27.672;2022-10-10T13:20:57;1.98;;;1.77;;
58372;SDS011;44177;43.356;27.672;2022-10-10T13:23:24;1.55;;;1.45;;
58372;SDS011;44177;43.356;27.672;2022-10-10T13:25:49;1.92;;;1.60;;
58372;SDS011;44177;43.356;27.672;2022-10-10T13:28:15;1.50;;;1.40;;
58372;SDS011;44177;43.356;27.672;2022-10-10T13:30:44;2.15;;;1.70;;
58372;SDS011;44177;43.356;27.672;2022-10-10T13:33:15;1.60;;;1.50;;
58372;SDS011;44177;43.356;27.672;2022-10-10T13:38:14;1.70;;;1.60;;
58372;SDS011;44177;43.356;27.672;2022-10-10T13:40:42;1.50;;;1.40;;
58372;SDS011;44177;43.356;27.672;2022-10-10T13:43:15;1.88;;;1.42;;
58372;SDS011;44177;43.356;27.672;2022-10-10T13:46:03;1.75;;;1.50;;
58372;SDS011;44177;43.356;27.672;2022-10-10T13:58:27;2.20;;;1.60;;
58372;SDS011;44177;43.356;27.672;2022-10-10T14:00:56;2.10;;;1.90;;
58372;SDS011;44177;43.356;27.672;2022-10-10T14:03:23;2.35;;;1.77;;
58372;SDS011;44177;43.356;27.672;2022-10-10T14:05:50;1.95;;;1.63;;
58372;SDS011;44177;43.356;27.672;2022-10-10T14:08:22;1.70;;;1.60;;
58372;SDS011;44177;43.356;27.672;2022-10-10T14:11:06;3.08;;;1.90;;
58372;SDS011;44177;43.356;27.672;2022-10-10T14:13:33;1.70;;;1.60;;
58372;SDS011;44177;43.356;27.672;2022-10-10T14:16:20;2.28;;;1.80;;
58372;SDS011;44177;43.356;27.672;2022-10-10T14:18:48;1.92;;;1.70;;
58372;SDS011;44177;43.356;27.672;2022-10-10T14:21:13;1.67;;;1.58;;
58372;SDS011;44177;43.356;27.672;2022-10-10T14:23:39;2.40;;;1.85;;
58372;SDS011;44177;43.356;27.672;2022-10-10T14:26:05;3.60;;;1.80;;
58372;SDS011;44177;43.356;27.672;2022-10-10T14:28:36;2.55;;;1.80;;
58372;SDS011;44177;43.356;27.672;2022-10-10T14:31:04;2.00;;;1.77;;
58372;SDS011;44177;43.356;27.672;2022-10-10T14:33:30;2.63;;;1.75;;
58372;SDS011;44177;43.356;27.672;2022-10-10T14:35:55;2.28;;;1.80;;
58372;SDS011;44177;43.356;27.672;2022-10-10T14:38:23;2.72;;;1.80;;
58372;SDS011;44177;43.356;27.672;2022-10-10T14:40:50;3.25;;;1.70;;
58372;SDS011;44177;43.356;27.672;2022-10-10T14:43:17;2.63;;;1.98;;
58372;SDS011;44177;43.356;27.672;2022-10-10T14:45:44;3.50;;;1.60;;
58372;SDS011;44177;43.356;27.672;2022-10-10T14:48:12;3.05;;;1.77;;
58372;SDS011;44177;43.356;27.672;2022-10-10T14:50:41;2.45;;;2.00;;
58372;SDS011;44177;43.356;27.672;2022-10-10T14:53:09;3.83;;;1.90;;
58372;SDS011;44177;43.356;27.672;2022-10-10T14:55:36;1.70;;;1.55;;
58372;SDS011;44177;43.356;27.672;2022-10-10T14:58:02;2.10;;;1.83;;
58372;SDS011;44177;43.356;27.672;2022-10-10T15:00:28;2.17;;;1.95;;
58372;SDS011;44177;43.356;27.672;2022-10-10T15:02:54;3.67;;;1.70;;
58372;SDS011;44177;43.356;27.672;2022-10-10T15:05:19;2.08;;;1.50;;
58372;SDS011;44177;43.356;27.672;2022-10-10T15:07:45;2.83;;;1.70;;
58372;SDS011;44177;43.356;27.672;2022-10-10T15:10:12;1.80;;;1.70;;
58372;SDS011;44177;43.356;27.672;2022-10-10T15:12:39;1.95;;;1.75;;
58372;SDS011;44177;43.356;27.672;2022-10-10T15:15:07;1.75;;;1.65;;
58372;SDS011;44177;43.356;27.672;2022-10-10T15:17:34;1.70;;;1.60;;
58372;SDS011;44177;43.356;27.672;2022-10-10T15:20:00;1.85;;;1.65;;
58372;SDS011;44177;43.356;27.672;2022-10-10T15:22:27;2.38;;;1.67;;
58372;SDS011;44177;43.356;27.672;2022-10-10T15:24:53;2.15;;;1.60;;
58372;SDS011;44177;43.356;27.672;2022-10-10T15:27:18;2.22;;;1.73;;
58372;SDS011;44177;43.356;27.672;2022-10-10T15:29:44;2.58;;;1.77;;
58372;SDS011;44177;43.356;27.672;2022-10-10T15:32:09;1.80;;;1.58;;
58372;SDS011;44177;43.356;27.672;2022-10-10T15:34:35;2.00;;;1.80;;
58372;SDS011;44177;43.356;27.672;2022-10-10T15:37:00;1.80;;;1.40;;
58372;SDS011;44177;43.356;27.672;2022-10-10T15:39:26;1.70;;;1.52;;
58372;SDS011;44177;43.356;27.672;2022-10-10T15:41:53;2.72;;;1.83;;
58372;SDS011;44177;43.356;27.672;2022-10-10T15:44:18;2.42;;;1.50;;
58372;SDS011;44177;43.356;27.672;2022-10-10T15:46:44;2.38;;;1.70;;
58372;SDS011;44177;43.356;27.672;2022-10-10T15:49:10;1.77;;;1.50;;
58372;SDS011;44177;43.356;27.672;2022-10-10T15:51:37;1.73;;;1.50;;
58372;SDS011;44177;43.356;27.672;2022-10-10T15:54:03;2.60;;;1.85;;
58372;SDS011;44177;43.356;27.672;2022-10-10T15:56:29;2.70;;;1.90;;
58372;SDS011;44177;43.356;27.672;2022-10-10T15:58:55;2.22;;;1.60;;
58372;SDS011;44177;43.356;27.672;2022-10-10T16:01:22;3.25;;;2.00;;
58372;SDS011;44177;43.356;27.672;2022-10-10T16:03:48;2.53;;;1.70;;
58372;SDS011;44177;43.356;27.672;2022-10-10T16:06:14;2.00;;;1.80;;
58372;SDS011;44177;43.356;27.672;2022-10-10T16:08:41;1.83;;;1.73;;
58372;SDS011;44177;43.356;27.672;2022-10-10T16:11:07;2.20;;;1.75;;
58372;SDS011;44177;43.356;27.672;2022-10-10T16:13:38;3.40;;;2.08;;
58372;SDS011;44177;43.356;27.672;2022-10-10T16:16:05;3.30;;;1.75;;
58372;SDS011;44177;43.356;27.672;2022-10-10T16:18:33;2.97;;;2.05;;
58372;SDS011;44177;43.356;27.672;2022-10-10T16:21:02;2.03;;;1.80;;
58372;SDS011;44177;43.356;27.672;2022-10-10T16:23:28;3.63;;;1.70;;
58372;SDS011;44177;43.356;27.672;2022-10-10T16:26:04;1.77;;;1.67;;
58372;SDS011;44177;43.356;27.672;2022-10-10T16:28:34;2.45;;;1.80;;
58372;SDS011;44177;43.356;27.672;2022-10-10T16:31:00;2.67;;;2.00;;
58372;SDS011;44177;43.356;27.672;2022-10-10T16:33:29;2.78;;;1.83;;
58372;SDS011;44177;43.356;27.672;2022-10-10T16:35:56;2.85;;;1.83;;
58372;SDS011;44177;43.356;27.672;2022-10-10T16:38:22;2.50;;;1.85;;
58372;SDS011;44177;43.356;27.672;2022-10-10T16:40:47;2.40;;;1.88;;
58372;SDS011;44177;43.356;27.672;2022-10-10T16:43:13;4.13;;;1.98;;
58372;SDS011;44177;43.356;27.672;2022-10-10T16:45:41;2.72;;;2.00;;
58372;SDS011;44177;43.356;27.672;2022-10-10T16:48:07;2.72;;;1.80;;
58372;SDS011;44177;43.356;27.672;2022-10-10T16:50:33;2.60;;;1.90;;